Time;durP1;ratioP1;P1;durP2;ratioP2;P2;SDS_P1;SDS_P2;PMS_P1;PMS_P2;Temp;Humidity;BMP_temperature;BMP_pressure;BME280_temperature;BME280_humidity;BME280_pressure;Samples;Min_cycle;Max_cycle;Signal;HPM_P1;HPM_P2
2022/11/04 00:01:23;;;;;;;548.22;509.42;;;;;;;;;;4970485;28;20441;-84
2022/11/04 00:03:49;;;;;;;553.38;514.03;;;;;;;;;;4969712;28;20417;-84
2022/11/04 00:06:15;;;;;;;507.95;472.17;;;;;;;;;;4970223;28;20421;-84
2022/11/04 00:08:41;;;;;;;580.45;538.60;;;;;;;;;;4938339;29;20481;-84
2022/11/04 00:13:56;;;;;;;0.52;0.43;;;;;;;;;;4952779;29;21012;-85
2022/11/04 00:19:07;;;;;;;41.30;39.20;;;;;;;;;;4970032;28;20457;-84
2022/11/04 00:29:47;;;;;;;578.80;537.22;;;;;;;;;;4969564;28;20444;-83
2022/11/04 00:34:57;;;;;;;563.58;523.15;;;;;;;;;;4969387;28;25099;-85
2022/11/04 00:37:23;;;;;;;520.63;483.63;;;;;;;;;;4969705;28;20418;-83
2022/11/04 00:39:49;;;;;;;485.63;450.08;;;;;;;;;;4969274;28;20460;-84
2022/11/04 00:42:15;;;;;;;589.40;546.20;;;;;;;;;;4969705;28;20473;-84
2022/11/04 00:44:41;;;;;;;576.22;534.13;;;;;;;;;;4969611;28;20422;-84
2022/11/04 00:47:07;;;;;;;593.65;549.58;;;;;;;;;;4954193;28;20478;-84
2022/11/04 00:49:33;;;;;;;518.33;480.75;;;;;;;;;;4969194;28;20422;-83
2022/11/04 00:51:59;;;;;;;567.90;526.13;;;;;;;;;;4969187;28;20473;-84
2022/11/04 00:54:26;;;;;;;588.33;545.22;;;;;;;;;;4937245;29;20442;-84
2022/11/04 00:56:52;;;;;;;586.93;543.77;;;;;;;;;;4967957;28;20509;-84
2022/11/04 00:59:19;;;;;;;569.35;527.42;;;;;;;;;;4953210;28;20405;-84
2022/11/04 01:01:45;;;;;;;597.87;553.53;;;;;;;;;;4969382;28;20905;-84
2022/11/04 01:04:12;;;;;;;577.13;534.33;;;;;;;;;;4968862;28;20469;-86
2022/11/04 01:06:38;;;;;;;597.75;553.28;;;;;;;;;;4967416;28;20406;-84
2022/11/04 01:09:07;;;;;;;562.15;521.33;;;;;;;;;;4968667;28;20414;-87
2022/11/04 01:11:33;;;;;;;406.05;376.40;;;;;;;;;;4968978;28;20493;-84
2022/11/04 01:13:59;;;;;;;580.38;537.58;;;;;;;;;;4952346;28;20434;-84
2022/11/04 01:16:27;;;;;;;584.35;541.20;;;;;;;;;;4953015;28;20410;-84
2022/11/04 01:18:53;;;;;;;572.03;529.78;;;;;;;;;;4968544;28;20513;-84
2022/11/04 01:21:19;;;;;;;567.70;526.08;;;;;;;;;;4968715;28;20521;-84
2022/11/04 01:23:45;;;;;;;337.52;314.35;;;;;;;;;;4968879;28;20898;-84
2022/11/04 01:26:15;;;;;;;561.03;519.65;;;;;;;;;;4968328;28;20417;-84
2022/11/04 01:28:42;;;;;;;0.10;0.10;;;;;;;;;;4968563;28;20429;-84
2022/11/04 01:31:09;;;;;;;376.15;351.00;;;;;;;;;;4952211;29;20754;-85
2022/11/04 01:33:36;;;;;;;525.13;487.60;;;;;;;;;;4968306;28;20429;-84
2022/11/04 01:36:02;;;;;;;538.67;499.98;;;;;;;;;;4968534;28;20424;-84
2022/11/04 01:38:28;;;;;;;440.13;409.90;;;;;;;;;;4968847;28;20413;-84
2022/11/04 01:40:54;;;;;;;473.50;440.33;;;;;;;;;;4968108;28;20931;-84
2022/11/04 01:43:21;;;;;;;513.22;476.48;;;;;;;;;;4968662;28;20421;-84
2022/11/04 01:45:49;;;;;;;515.05;477.80;;;;;;;;;;4968543;28;20406;-84
2022/11/04 01:48:21;;;;;;;465.00;432.50;;;;;;;;;;4968279;28;20434;-85
2022/11/04 01:50:49;;;;;;;547.83;508.05;;;;;;;;;;4968454;28;20442;-84
2022/11/04 01:53:20;;;;;;;542.72;503.55;;;;;;;;;;4953138;28;20461;-84
2022/11/04 01:55:51;;;;;;;529.22;491.60;;;;;;;;;;4968271;28;20418;-84
2022/11/04 01:58:18;;;;;;;523.75;486.20;;;;;;;;;;4968303;28;20512;-84
2022/11/04 02:00:44;;;;;;;462.67;430.42;;;;;;;;;;4968473;28;20418;-84
2022/11/04 02:03:39;;;;;;;527.40;489.75;;;;;;;;;;4968162;28;20420;-84
2022/11/04 02:06:06;;;;;;;507.77;471.80;;;;;;;;;;4951305;29;20425;-84
2022/11/04 02:08:32;;;;;;;550.90;511.00;;;;;;;;;;4970482;28;20425;-83
2022/11/04 02:10:59;;;;;;;548.65;509.17;;;;;;;;;;4972080;28;20498;-85
2022/11/04 02:13:26;;;;;;;567.47;525.85;;;;;;;;;;4972334;28;20841;-83
2022/11/04 02:15:57;;;;;;;559.75;518.92;;;;;;;;;;4971867;28;20746;-83
2022/11/04 02:18:41;;;;;;;561.43;520.37;;;;;;;;;;4972561;28;20449;-84
2022/11/04 02:21:07;;;;;;;1.48;1.35;;;;;;;;;;4972077;28;20765;-85
2022/11/04 02:23:43;;;;;;;513.45;477.05;;;;;;;;;;4956278;29;20512;-85
2022/11/04 02:26:28;;;;;;;548.75;508.95;;;;;;;;;;4971555;28;20485;-85
2022/11/04 02:29:13;;;;;;;539.85;500.88;;;;;;;;;;4971539;28;25193;-84
2022/11/04 02:31:55;;;;;;;527.73;489.97;;;;;;;;;;4955834;28;25109;-84
2022/11/04 02:34:21;;;;;;;549.22;509.42;;;;;;;;;;4971278;28;25114;-84
2022/11/04 02:36:47;;;;;;;496.55;460.55;;;;;;;;;;4972030;28;20422;-84
2022/11/04 02:39:25;;;;;;;558.88;518.22;;;;;;;;;;4971681;28;20963;-84
2022/11/04 02:41:57;;;;;;;514.15;477.40;;;;;;;;;;4971654;28;20417;-83
2022/11/04 02:44:32;;;;;;;550.40;510.42;;;;;;;;;;4971697;28;20446;-84
2022/11/04 02:47:00;;;;;;;551.80;511.55;;;;;;;;;;4971261;28;25110;-85
2022/11/04 02:49:34;;;;;;;555.78;515.38;;;;;;;;;;4971366;28;20445;-84
2022/11/04 02:52:03;;;;;;;172.25;159.43;;;;;;;;;;4971394;28;25121;-84
2022/11/04 02:54:36;;;;;;;542.63;503.52;;;;;;;;;;4971291;28;20544;-84
2022/11/04 02:57:03;;;;;;;558.63;517.73;;;;;;;;;;4971306;28;20417;-84
2022/11/04 02:59:34;;;;;;;555.15;514.58;;;;;;;;;;4955915;28;20424;-84
2022/11/04 03:02:03;;;;;;;549.05;509.38;;;;;;;;;;4971458;28;20421;-84
2022/11/04 03:04:31;;;;;;;568.67;526.72;;;;;;;;;;4971173;28;20428;-84
2022/11/04 03:06:58;;;;;;;516.00;479.05;;;;;;;;;;4971121;28;20425;-84
2022/11/04 03:09:25;;;;;;;562.97;521.50;;;;;;;;;;4956320;28;20402;-83
2022/11/04 03:11:55;;;;;;;540.58;501.48;;;;;;;;;;4971451;28;20488;-84
2022/11/04 03:14:27;;;;;;;565.65;523.88;;;;;;;;;;4970813;28;20453;-84
2022/11/04 03:16:55;;;;;;;413.40;383.25;;;;;;;;;;4971166;28;20440;-84
2022/11/04 03:19:21;;;;;;;399.25;371.00;;;;;;;;;;4969752;28;20438;-84
2022/11/04 03:21:51;;;;;;;22.23;21.17;;;;;;;;;;4971297;28;20965;-84
2022/11/04 03:24:17;;;;;;;174.18;163.38;;;;;;;;;;4955914;28;20420;-84
2022/11/04 03:26:43;;;;;;;541.43;501.90;;;;;;;;;;4971022;28;20471;-84
2022/11/04 03:29:15;;;;;;;546.58;506.70;;;;;;;;;;4970100;28;20425;-84
2022/11/04 03:31:48;;;;;;;534.40;495.70;;;;;;;;;;4955723;28;20473;-85
2022/11/04 03:34:14;;;;;;;537.17;498.38;;;;;;;;;;4970429;28;20482;-84
2022/11/04 03:36:40;;;;;;;539.90;500.70;;;;;;;;;;4970913;28;20473;-84
2022/11/04 03:39:06;;;;;;;537.83;498.83;;;;;;;;;;4970675;28;20952;-84
2022/11/04 03:41:39;;;;;;;535.53;496.92;;;;;;;;;;4970617;28;20456;-84
2022/11/04 03:44:05;;;;;;;539.75;500.80;;;;;;;;;;4969875;28;25119;-85
2022/11/04 03:46:31;;;;;;;540.63;501.27;;;;;;;;;;4954983;28;20769;-84
2022/11/04 03:48:59;;;;;;;520.08;482.58;;;;;;;;;;4954456;28;20760;-84
2022/11/04 03:51:25;;;;;;;542.15;502.63;;;;;;;;;;4953956;28;20911;-84
2022/11/04 03:53:51;;;;;;;552.83;512.28;;;;;;;;;;4970076;28;20949;-84
2022/11/04 03:56:24;;;;;;;529.45;491.15;;;;;;;;;;4970175;28;20445;-85
2022/11/04 03:58:57;;;;;;;533.53;494.90;;;;;;;;;;4970401;28;20431;-85
2022/11/04 04:01:41;;;;;;;543.05;503.40;;;;;;;;;;4970329;28;20941;-84
2022/11/04 04:04:26;;;;;;;537.78;498.70;;;;;;;;;;4970155;28;25103;-85
2022/11/04 04:06:55;;;;;;;553.65;512.88;;;;;;;;;;4970320;28;20426;-83
2022/11/04 04:09:26;;;;;;;529.97;491.73;;;;;;;;;;4969876;28;20457;-84
2022/11/04 04:11:52;;;;;;;466.13;433.38;;;;;;;;;;4970223;28;20402;-86
2022/11/04 04:14:38;;;;;;;476.13;442.33;;;;;;;;;;4969688;28;20437;-84
2022/11/04 04:17:13;;;;;;;0.28;0.28;;;;;;;;;;4970059;28;20418;-85
2022/11/04 04:19:41;;;;;;;32.13;30.63;;;;;;;;;;4954172;29;20947;-83
2022/11/04 04:22:14;;;;;;;56.28;53.53;;;;;;;;;;4969968;28;20445;-85
2022/11/04 04:27:29;;;;;;;509.10;472.50;;;;;;;;;;4969354;28;20422;-84
2022/11/04 04:29:56;;;;;;;157.75;148.10;;;;;;;;;;4970260;28;20460;-87
2022/11/04 04:32:23;;;;;;;404.15;376.35;;;;;;;;;;4969759;28;20442;-84
2022/11/04 04:34:49;;;;;;;394.83;367.88;;;;;;;;;;4969681;28;20425;-85
2022/11/04 04:37:23;;;;;;;411.05;382.38;;;;;;;;;;4937581;29;20409;-84
2022/11/04 04:45:32;;;;;;;415.55;386.77;;;;;;;;;;4939843;29;20425;-84
2022/11/04 04:47:58;;;;;;;101.15;95.93;;;;;;;;;;4969884;28;20568;-84
2022/11/04 04:50:27;;;;;;;115.25;107.22;;;;;;;;;;4969162;28;20931;-84
2022/11/04 04:52:54;;;;;;;479.20;444.95;;;;;;;;;;4969323;28;20441;-84
2022/11/04 04:55:20;;;;;;;0.20;0.20;;;;;;;;;;4969160;28;20497;-84
2022/11/04 04:57:46;;;;;;;0.10;0.10;;;;;;;;;;4953664;29;20468;-84
2022/11/04 05:00:14;;;;;;;513.63;476.58;;;;;;;;;;4953155;28;20422;-84
2022/11/04 05:02:40;;;;;;;477.63;443.67;;;;;;;;;;4969474;28;20437;-85
2022/11/04 05:05:06;;;;;;;514.63;477.27;;;;;;;;;;4969377;28;20473;-84
2022/11/04 05:07:32;;;;;;;523.03;484.65;;;;;;;;;;4968907;28;20509;-84
2022/11/04 05:09:58;;;;;;;496.38;460.80;;;;;;;;;;4969137;28;20466;-84
2022/11/04 05:12:24;;;;;;;516.37;478.67;;;;;;;;;;4968797;28;20757;-84
2022/11/04 05:14:50;;;;;;;67.43;64.10;;;;;;;;;;4953248;28;20418;-84
2022/11/04 05:17:16;;;;;;;20.47;19.43;;;;;;;;;;4969044;28;20410;-84
2022/11/04 05:19:42;;;;;;;523.22;484.88;;;;;;;;;;4969126;28;20794;-84
2022/11/04 05:22:08;;;;;;;518.75;480.90;;;;;;;;;;4968758;28;20468;-88
2022/11/04 05:24:34;;;;;;;521.85;483.52;;;;;;;;;;4968804;28;20468;-85
2022/11/04 05:27:00;;;;;;;512.93;475.63;;;;;;;;;;4968913;28;20432;-85
2022/11/04 05:29:26;;;;;;;521.22;483.08;;;;;;;;;;4968217;28;20751;-85
2022/11/04 05:31:52;;;;;;;508.87;472.13;;;;;;;;;;4968933;28;20426;-85
2022/11/04 05:34:19;;;;;;;527.03;488.27;;;;;;;;;;4968288;28;20960;-84
2022/11/04 05:36:45;;;;;;;524.25;485.67;;;;;;;;;;4936764;29;20425;-84
2022/11/04 05:39:12;;;;;;;519.22;481.25;;;;;;;;;;4968634;28;20414;-84
2022/11/04 05:41:39;;;;;;;512.45;475.05;;;;;;;;;;4968835;28;20484;-84
2022/11/04 05:44:05;;;;;;;526.30;487.55;;;;;;;;;;4968101;28;20421;-84
2022/11/04 05:46:31;;;;;;;530.13;490.63;;;;;;;;;;4936575;29;20442;-84
2022/11/04 05:48:58;;;;;;;514.85;477.10;;;;;;;;;;4968681;28;20476;-84
2022/11/04 05:51:25;;;;;;;193.57;181.32;;;;;;;;;;4968373;28;20778;-84
2022/11/04 05:53:51;;;;;;;518.50;480.45;;;;;;;;;;4968253;28;20426;-84
2022/11/04 05:56:17;;;;;;;513.88;475.98;;;;;;;;;;4968392;28;20921;-85
2022/11/04 05:58:43;;;;;;;512.97;475.03;;;;;;;;;;4968448;28;20418;-84
2022/11/04 06:01:22;;;;;;;511.48;473.92;;;;;;;;;;4968650;28;20418;-85
2022/11/04 06:03:48;;;;;;;496.77;460.55;;;;;;;;;;4968527;28;20484;-84
2022/11/04 06:06:14;;;;;;;496.48;460.17;;;;;;;;;;4952288;28;20421;-87
2022/11/04 06:08:40;;;;;;;507.45;470.13;;;;;;;;;;4968412;28;20461;-85
2022/11/04 06:11:06;;;;;;;510.92;473.20;;;;;;;;;;4968440;28;20422;-85
2022/11/04 06:13:32;;;;;;;506.95;469.58;;;;;;;;;;4967806;28;20437;-85
2022/11/04 06:15:58;;;;;;;491.70;455.95;;;;;;;;;;4968255;28;20507;-84
2022/11/04 06:18:24;;;;;;;121.30;114.55;;;;;;;;;;4968119;28;20513;-84
2022/11/04 06:20:50;;;;;;;0.10;0.10;;;;;;;;;;4952396;28;20428;-85
2022/11/04 06:23:16;;;;;;;0.10;0.10;;;;;;;;;;4952518;28;20476;-87
2022/11/04 06:25:42;;;;;;;446.77;414.60;;;;;;;;;;4968329;28;20472;-85
2022/11/04 06:28:08;;;;;;;479.17;444.38;;;;;;;;;;4951583;28;20455;-84
2022/11/04 06:30:34;;;;;;;484.52;449.08;;;;;;;;;;4968003;28;20421;-84
2022/11/04 06:33:00;;;;;;;468.33;434.52;;;;;;;;;;4968260;28;20469;-85
2022/11/04 06:35:26;;;;;;;453.85;420.88;;;;;;;;;;4967765;28;20417;-85
2022/11/04 06:37:54;;;;;;;469.27;435.40;;;;;;;;;;4968339;28;20430;-84
2022/11/04 06:40:20;;;;;;;474.52;440.05;;;;;;;;;;4967553;28;20414;-85
2022/11/04 06:42:46;;;;;;;0.10;0.10;;;;;;;;;;4968204;28;20485;-84
2022/11/04 06:45:12;;;;;;;487.05;451.65;;;;;;;;;;4952024;29;20457;-84
2022/11/04 06:47:38;;;;;;;468.63;434.70;;;;;;;;;;4967300;28;20426;-84
2022/11/04 06:50:04;;;;;;;463.23;429.70;;;;;;;;;;4967903;28;20453;-85
2022/11/04 06:52:30;;;;;;;486.40;450.70;;;;;;;;;;4967597;28;20429;-85
2022/11/04 06:54:56;;;;;;;465.45;431.73;;;;;;;;;;4969475;28;20472;-84
2022/11/04 06:57:22;;;;;;;470.25;436.02;;;;;;;;;;4971293;28;20472;-84
2022/11/04 06:59:48;;;;;;;475.05;440.10;;;;;;;;;;4971590;28;20418;-84
2022/11/04 07:02:15;;;;;;;424.00;393.52;;;;;;;;;;4971607;28;20421;-84
2022/11/04 07:04:41;;;;;;;479.30;443.90;;;;;;;;;;4971043;28;20418;-84
2022/11/04 07:07:07;;;;;;;473.00;438.40;;;;;;;;;;4971528;28;20460;-84
2022/11/04 07:09:34;;;;;;;468.70;434.45;;;;;;;;;;4970601;28;20422;-84
2022/11/04 07:12:00;;;;;;;481.05;445.67;;;;;;;;;;4971120;28;20908;-84
2022/11/04 07:14:26;;;;;;;470.75;436.13;;;;;;;;;;4970828;28;20436;-84
2022/11/04 07:16:52;;;;;;;328.43;304.97;;;;;;;;;;4971376;28;20425;-84
2022/11/04 07:19:18;;;;;;;98.20;93.22;;;;;;;;;;4971408;28;20501;-84
2022/11/04 07:21:44;;;;;;;140.83;133.63;;;;;;;;;;4970863;28;20439;-87
2022/11/04 07:24:10;;;;;;;82.20;78.28;;;;;;;;;;4971001;28;20417;-85
2022/11/04 07:26:36;;;;;;;214.50;202.23;;;;;;;;;;4955489;28;20981;-85
2022/11/04 07:29:04;;;;;;;342.55;319.77;;;;;;;;;;4938538;29;20913;-84
2022/11/04 07:31:30;;;;;;;349.07;325.87;;;;;;;;;;4970633;28;20541;-84
2022/11/04 07:33:56;;;;;;;311.45;290.95;;;;;;;;;;4970453;28;20434;-84
2022/11/04 07:36:22;;;;;;;352.08;328.83;;;;;;;;;;4970813;28;20426;-88
2022/11/04 07:38:49;;;;;;;374.17;349.10;;;;;;;;;;4955029;28;20508;-84
2022/11/04 07:41:15;;;;;;;361.02;337.40;;;;;;;;;;4970934;28;20901;-84
2022/11/04 07:43:41;;;;;;;390.47;364.43;;;;;;;;;;4970379;28;20480;-84
2022/11/04 07:46:09;;;;;;;420.35;391.85;;;;;;;;;;4970691;28;20516;-84
2022/11/04 07:48:36;;;;;;;435.92;406.17;;;;;;;;;;4970560;28;20492;-84
2022/11/04 07:51:03;;;;;;;374.48;349.80;;;;;;;;;;4970743;28;20426;-84
2022/11/04 07:53:29;;;;;;;411.48;383.52;;;;;;;;;;4970140;28;20426;-84
2022/11/04 07:55:56;;;;;;;486.85;453.08;;;;;;;;;;4970476;28;20461;-84
2022/11/04 07:58:24;;;;;;;480.25;447.17;;;;;;;;;;4970550;28;20516;-84
2022/11/04 08:00:50;;;;;;;480.57;447.37;;;;;;;;;;4970710;28;20509;-84
2022/11/04 08:03:16;;;;;;;538.63;500.77;;;;;;;;;;4970312;28;20424;-84
2022/11/04 08:05:42;;;;;;;555.20;515.95;;;;;;;;;;4954627;28;20417;-84
2022/11/04 08:08:08;;;;;;;576.85;536.20;;;;;;;;;;4970067;28;20920;-85
2022/11/04 08:10:35;;;;;;;574.42;534.38;;;;;;;;;;4970020;28;20428;-85
2022/11/04 08:13:01;;;;;;;48.20;45.87;;;;;;;;;;4954595;28;20446;-84
2022/11/04 08:15:28;;;;;;;492.98;459.10;;;;;;;;;;4969760;28;20505;-82
2022/11/04 08:17:54;;;;;;;618.65;574.03;;;;;;;;;;4970537;28;20418;-81
2022/11/04 08:20:20;;;;;;;368.73;345.70;;;;;;;;;;4970269;28;20505;-82
2022/11/04 08:22:46;;;;;;;672.22;623.90;;;;;;;;;;4970376;28;20457;-82
2022/11/04 08:25:12;;;;;;;676.43;627.23;;;;;;;;;;4970000;28;20477;-81
2022/11/04 08:27:39;;;;;;;111.20;105.47;;;;;;;;;;4938087;29;20500;-82
2022/11/04 08:30:05;;;;;;;634.97;589.70;;;;;;;;;;4970341;28;20433;-85
2022/11/04 08:32:31;;;;;;;626.92;582.35;;;;;;;;;;4969674;28;20822;-85
2022/11/04 08:34:57;;;;;;;627.22;582.55;;;;;;;;;;4954140;29;20414;-85
2022/11/04 08:37:23;;;;;;;642.33;595.83;;;;;;;;;;4970550;28;20413;-85
2022/11/04 08:39:49;;;;;;;652.85;605.08;;;;;;;;;;4954738;28;20422;-84
2022/11/04 08:42:15;;;;;;;670.22;620.22;;;;;;;;;;4970111;28;20422;-84
2022/11/04 08:44:41;;;;;;;643.10;596.03;;;;;;;;;;4953431;28;20662;-85
2022/11/04 08:47:07;;;;;;;612.58;568.10;;;;;;;;;;4969691;28;20437;-85
2022/11/04 08:49:37;;;;;;;660.37;611.67;;;;;;;;;;4969332;28;20492;-86
2022/11/04 08:52:03;;;;;;;652.13;604.65;;;;;;;;;;4969550;28;20505;-85
2022/11/04 08:54:29;;;;;;;622.65;577.88;;;;;;;;;;4969023;28;20433;-86
2022/11/04 08:56:55;;;;;;;565.70;525.78;;;;;;;;;;4969407;28;20429;-86
2022/11/04 08:59:21;;;;;;;640.17;593.75;;;;;;;;;;4969654;28;20422;-87
2022/11/04 09:01:47;;;;;;;631.38;586.17;;;;;;;;;;4968987;28;20420;-85
2022/11/04 09:04:14;;;;;;;635.13;589.75;;;;;;;;;;4953282;28;20893;-85
2022/11/04 09:06:42;;;;;;;655.03;607.55;;;;;;;;;;4969030;28;20508;-85
2022/11/04 09:09:09;;;;;;;275.25;259.00;;;;;;;;;;4969377;28;20477;-85
2022/11/04 09:11:38;;;;;;;393.58;367.92;;;;;;;;;;4969064;28;20424;-86
2022/11/04 09:14:04;;;;;;;584.00;543.47;;;;;;;;;;4968941;28;20991;-85
2022/11/04 09:16:31;;;;;;;647.97;601.97;;;;;;;;;;4968720;28;20430;-85
2022/11/04 09:18:58;;;;;;;668.63;620.63;;;;;;;;;;4952295;28;20754;-85
2022/11/04 09:21:25;;;;;;;550.15;512.30;;;;;;;;;;4968869;28;20421;-85
2022/11/04 09:23:51;;;;;;;697.40;647.03;;;;;;;;;;4968553;28;20422;-85
2022/11/04 09:26:17;;;;;;;776.50;715.70;;;;;;;;;;4968787;28;20421;-85
2022/11/04 09:28:43;;;;;;;806.47;742.85;;;;;;;;;;4953297;28;20425;-83
2022/11/04 09:31:11;;;;;;;875.72;805.00;;;;;;;;;;4969017;28;20444;-83
2022/11/04 09:33:38;;;;;;;887.90;822.45;;;;;;;;;;4968410;28;20466;-83
2022/11/04 09:36:04;;;;;;;899.22;827.78;;;;;;;;;;4968785;28;20472;-82
2022/11/04 09:38:30;;;;;;;892.55;821.45;;;;;;;;;;4952933;28;20449;-83
2022/11/04 09:40:58;;;;;;;889.20;822.38;;;;;;;;;;4968486;28;20414;-83
2022/11/04 09:43:27;;;;;;;875.05;809.88;;;;;;;;;;4968467;28;20920;-83
2022/11/04 09:45:55;;;;;;;875.42;809.58;;;;;;;;;;4968218;28;20425;-83
2022/11/04 09:48:28;;;;;;;867.30;799.83;;;;;;;;;;4968965;28;20417;-83
2022/11/04 09:50:57;;;;;;;859.57;792.03;;;;;;;;;;4968091;28;20893;-83
2022/11/04 09:53:26;;;;;;;841.10;772.22;;;;;;;;;;4952258;28;20441;-84
2022/11/04 09:55:55;;;;;;;841.72;775.38;;;;;;;;;;4968225;28;20426;-83
2022/11/04 09:58:21;;;;;;;834.80;768.40;;;;;;;;;;4968658;28;20424;-83
2022/11/04 10:00:57;;;;;;;827.72;761.42;;;;;;;;;;4968253;28;20442;-83
2022/11/04 10:03:26;;;;;;;819.15;752.67;;;;;;;;;;4968560;28;25190;-83
2022/11/04 10:05:52;;;;;;;812.22;744.15;;;;;;;;;;4968154;28;20508;-83
2022/11/04 10:08:24;;;;;;;809.63;745.20;;;;;;;;;;4952303;28;20969;-83
2022/11/04 10:11:05;;;;;;;802.70;735.47;;;;;;;;;;4967761;28;20432;-84
2022/11/04 10:13:43;;;;;;;798.60;737.80;;;;;;;;;;4967825;28;20817;-85
2022/11/04 10:16:21;;;;;;;806.53;743.20;;;;;;;;;;4968424;28;20928;-85
2022/11/04 10:18:47;;;;;;;796.47;730.30;;;;;;;;;;4968237;28;20429;-84
2022/11/04 10:21:16;;;;;;;793.85;730.20;;;;;;;;;;4968367;28;20420;-86
2022/11/04 10:23:48;;;;;;;793.35;729.45;;;;;;;;;;4967949;28;20421;-85
2022/11/04 10:26:28;;;;;;;802.88;742.10;;;;;;;;;;4968295;28;20541;-84
2022/11/04 10:28:57;;;;;;;795.72;730.53;;;;;;;;;;4969143;28;20430;-84
2022/11/04 10:31:24;;;;;;;797.40;732.85;;;;;;;;;;4956304;28;20421;-84
2022/11/04 10:33:52;;;;;;;806.17;742.38;;;;;;;;;;4971460;28;20445;-84
2022/11/04 10:36:20;;;;;;;810.78;747.20;;;;;;;;;;4972129;28;20421;-84
2022/11/04 10:38:56;;;;;;;809.67;745.35;;;;;;;;;;4971495;28;20414;-84
2022/11/04 10:41:25;;;;;;;802.15;738.35;;;;;;;;;;4972040;28;20437;-84
2022/11/04 10:43:53;;;;;;;808.58;745.03;;;;;;;;;;4971764;28;20508;-84
2022/11/04 10:46:37;;;;;;;803.75;738.30;;;;;;;;;;4971866;28;20432;-83
2022/11/04 10:49:12;;;;;;;805.00;738.90;;;;;;;;;;4971484;28;20428;-83
2022/11/04 10:51:38;;;;;;;803.90;738.80;;;;;;;;;;4971643;28;20514;-82
2022/11/04 10:54:05;;;;;;;807.40;744.20;;;;;;;;;;4971359;28;20537;-83
2022/11/04 10:56:31;;;;;;;802.80;737.20;;;;;;;;;;4971926;28;20421;-84
2022/11/04 10:59:00;;;;;;;798.10;731.10;;;;;;;;;;4971495;28;20429;-83
2022/11/04 11:01:29;;;;;;;794.78;727.67;;;;;;;;;;4971816;28;20472;-83
2022/11/04 11:03:56;;;;;;;792.40;725.30;;;;;;;;;;4971286;28;20440;-84
2022/11/04 11:06:24;;;;;;;791.30;723.85;;;;;;;;;;4971558;28;20425;-83
2022/11/04 11:08:51;;;;;;;792.93;725.93;;;;;;;;;;4971329;28;20969;-83
2022/11/04 11:11:33;;;;;;;794.13;727.38;;;;;;;;;;4971354;28;20493;-84
2022/11/04 11:13:59;;;;;;;800.15;734.80;;;;;;;;;;4971119;28;20444;-84
2022/11/04 11:16:26;;;;;;;792.22;725.10;;;;;;;;;;4955014;28;20757;-82
2022/11/04 11:19:12;;;;;;;795.73;728.33;;;;;;;;;;4971146;28;20415;-83
2022/11/04 11:21:44;;;;;;;790.88;724.67;;;;;;;;;;4971215;28;20501;-83
2022/11/04 11:24:33;;;;;;;791.00;725.38;;;;;;;;;;4971200;28;20480;-83
2022/11/04 11:27:01;;;;;;;789.60;726.75;;;;;;;;;;4970783;28;20431;-83
2022/11/04 11:29:38;;;;;;;787.88;723.42;;;;;;;;;;4970863;28;20426;-83
2022/11/04 11:32:05;;;;;;;781.05;716.00;;;;;;;;;;4970603;28;25105;-83
2022/11/04 11:34:32;;;;;;;775.03;710.10;;;;;;;;;;4970856;28;20491;-82
2022/11/04 11:37:01;;;;;;;775.20;708.83;;;;;;;;;;4970511;28;20984;-84
2022/11/04 11:39:31;;;;;;;769.30;703.10;;;;;;;;;;4970980;28;20538;-83
2022/11/04 11:42:00;;;;;;;766.85;700.17;;;;;;;;;;4969919;28;20441;-82
2022/11/04 11:44:36;;;;;;;765.63;699.60;;;;;;;;;;4970738;28;20514;-83
2022/11/04 11:47:06;;;;;;;762.00;695.30;;;;;;;;;;4970408;28;25192;-83
2022/11/04 11:49:36;;;;;;;768.90;703.67;;;;;;;;;;4970855;28;20419;-83
2022/11/04 11:52:21;;;;;;;757.92;692.25;;;;;;;;;;4970185;28;20921;-83
2022/11/04 11:54:49;;;;;;;755.97;690.17;;;;;;;;;;4970054;28;20458;-83
2022/11/04 11:57:27;;;;;;;756.17;690.10;;;;;;;;;;4970678;28;20919;-83
2022/11/04 11:59:57;;;;;;;760.72;695.33;;;;;;;;;;4969487;28;20772;-86
2022/11/04 12:02:42;;;;;;;753.83;689.75;;;;;;;;;;4969270;28;20912;-85
2022/11/04 12:05:10;;;;;;;751.63;687.38;;;;;;;;;;4968170;28;25118;-84
2022/11/04 12:07:53;;;;;;;742.80;677.75;;;;;;;;;;4969700;28;20996;-84
2022/11/04 12:10:19;;;;;;;739.50;676.53;;;;;;;;;;4952747;28;25103;-83
2022/11/04 12:12:53;;;;;;;738.05;674.35;;;;;;;;;;4968873;28;20502;-83
2022/11/04 12:15:31;;;;;;;735.88;673.50;;;;;;;;;;4969538;28;20759;-84
2022/11/04 12:18:07;;;;;;;738.35;674.85;;;;;;;;;;4968483;28;20529;-84
2022/11/04 12:20:52;;;;;;;734.28;670.97;;;;;;;;;;4968124;28;20874;-81
2022/11/04 12:23:36;;;;;;;733.17;669.88;;;;;;;;;;4954719;28;25103;-81
2022/11/04 12:26:24;;;;;;;734.95;670.55;;;;;;;;;;4968771;28;25144;-85
2022/11/04 12:29:09;;;;;;;729.30;665.30;;;;;;;;;;4967934;28;25220;-84
2022/11/04 12:31:47;;;;;;;732.88;668.78;;;;;;;;;;4968422;28;25125;-84
2022/11/04 12:34:19;;;;;;;732.10;668.10;;;;;;;;;;4968323;28;25146;-87
2022/11/04 12:36:51;;;;;;;732.15;667.97;;;;;;;;;;4969780;28;20416;-87
2022/11/04 12:39:20;;;;;;;736.70;672.00;;;;;;;;;;4969099;28;20442;-85
2022/11/04 12:42:00;;;;;;;742.43;679.20;;;;;;;;;;4969472;28;20521;-86
2022/11/04 12:44:35;;;;;;;738.17;675.70;;;;;;;;;;4953646;28;20486;-82
2022/11/04 12:47:01;;;;;;;739.92;677.20;;;;;;;;;;4968870;28;25104;-83
2022/11/04 12:49:30;;;;;;;736.08;672.20;;;;;;;;;;4953816;28;20435;-83
2022/11/04 12:52:06;;;;;;;729.13;664.08;;;;;;;;;;4952819;28;20402;-84
2022/11/04 12:54:42;;;;;;;738.28;674.47;;;;;;;;;;4954038;28;20524;-84
2022/11/04 12:57:14;;;;;;;741.42;676.97;;;;;;;;;;4953292;28;25202;-83
2022/11/04 12:59:54;;;;;;;736.92;672.42;;;;;;;;;;4953575;28;20437;-83
2022/11/04 13:02:23;;;;;;;736.33;671.45;;;;;;;;;;4954000;28;20825;-84
2022/11/04 13:04:56;;;;;;;735.78;671.67;;;;;;;;;;4968594;28;20980;-83
2022/11/04 13:07:30;;;;;;;729.17;664.08;;;;;;;;;;4967296;28;20458;-84
2022/11/04 13:09:59;;;;;;;734.90;669.95;;;;;;;;;;4965950;28;25163;-88
2022/11/04 13:12:29;;;;;;;738.22;673.45;;;;;;;;;;4968127;28;20520;-89
2022/11/04 13:15:03;;;;;;;731.40;666.15;;;;;;;;;;4967329;28;20449;-89
2022/11/04 13:17:30;;;;;;;733.08;668.67;;;;;;;;;;4936285;29;25154;-90
2022/11/04 13:19:59;;;;;;;730.35;666.00;;;;;;;;;;4967386;28;20500;-87
2022/11/04 13:22:31;;;;;;;732.17;667.38;;;;;;;;;;4967947;28;20426;-89
2022/11/04 13:25:04;;;;;;;731.42;666.67;;;;;;;;;;4967431;28;20482;-89
2022/11/04 13:27:32;;;;;;;727.45;662.83;;;;;;;;;;4968011;28;20513;-89
2022/11/04 13:30:15;;;;;;;724.95;660.30;;;;;;;;;;4966490;28;20500;-88
2022/11/04 13:32:52;;;;;;;726.63;662.33;;;;;;;;;;4966438;28;25158;-88
2022/11/04 13:35:23;;;;;;;727.15;662.55;;;;;;;;;;4966887;28;20418;-83
2022/11/04 13:37:57;;;;;;;722.85;657.65;;;;;;;;;;4967587;28;20437;-82
2022/11/04 13:40:29;;;;;;;725.97;660.47;;;;;;;;;;4968119;28;20939;-90
2022/11/04 13:45:53;;;;;;;719.22;654.22;;;;;;;;;;4952115;28;25170;-85
2022/11/04 13:48:20;;;;;;;722.22;657.15;;;;;;;;;;4966795;28;20437;-88
2022/11/04 13:50:55;;;;;;;716.80;651.65;;;;;;;;;;4966792;28;20828;-90
2022/11/04 13:53:22;;;;;;;719.03;653.88;;;;;;;;;;4967440;28;25107;-89
2022/11/04 13:55:49;;;;;;;721.25;656.33;;;;;;;;;;4966777;28;20746;-90
2022/11/04 13:58:23;;;;;;;721.45;656.33;;;;;;;;;;4967614;28;20485;-91
2022/11/04 14:01:12;;;;;;;727.22;664.25;;;;;;;;;;4966976;28;25108;-92
2022/11/04 14:03:50;;;;;;;726.30;664.08;;;;;;;;;;4967205;28;20428;-87
2022/11/04 14:06:17;;;;;;;725.70;662.75;;;;;;;;;;4966853;28;20452;-93
2022/11/04 14:09:18;;;;;;;722.60;659.77;;;;;;;;;;4967282;28;20497;-86
2022/11/04 14:12:03;;;;;;;731.35;669.10;;;;;;;;;;4948136;29;20677;-88
2022/11/04 14:14:29;;;;;;;729.80;667.40;;;;;;;;;;4949092;29;20477;-85
2022/11/04 14:16:55;;;;;;;725.03;662.78;;;;;;;;;;4967215;28;20418;-89
2022/11/04 14:19:41;;;;;;;480.45;448.30;;;;;;;;;;4966604;28;20421;-87
2022/11/04 14:22:12;;;;;;;491.38;455.83;;;;;;;;;;4965655;28;20433;-82
2022/11/04 14:24:39;;;;;;;725.58;662.97;;;;;;;;;;4967386;28;20422;-87
2022/11/04 14:27:05;;;;;;;720.35;656.90;;;;;;;;;;4966165;28;20426;-88
2022/11/04 14:29:32;;;;;;;721.50;658.95;;;;;;;;;;4950705;29;20862;-89
2022/11/04 14:31:59;;;;;;;718.83;655.65;;;;;;;;;;4967288;28;20436;-89
2022/11/04 14:34:27;;;;;;;705.33;641.33;;;;;;;;;;4966651;28;20434;-89